sensor_id;sensor_type;location;lat;lon;timestamp;temperature;humidity
48666;DHT22;34452;50.796;4.994;2022-11-20T00:01:19;4.50;99.90
48666;DHT22;34452;50.796;4.994;2022-11-20T00:03:46;4.60;99.90
48666;DHT22;34452;50.796;4.994;2022-11-20T00:06:14;4.50;99.90
48666;DHT22;34452;50.796;4.994;2022-11-20T00:08:40;4.60;99.90
48666;DHT22;34452;50.796;4.994;2022-11-20T00:11:15;4.60;99.90
48666;DHT22;34452;50.796;4.994;2022-11-20T00:13:41;4.60;99.90
48666;DHT22;34452;50.796;4.994;2022-11-20T00:16:09;4.60;99.90
48666;DHT22;34452;50.796;4.994;2022-11-20T00:18:35;4.60;99.90
48666;DHT22;34452;50.796;4.994;2022-11-20T00:21:03;4.60;99.90
48666;DHT22;34452;50.796;4.994;2022-11-20T00:23:29;4.60;99.90
48666;DHT22;34452;50.796;4.994;2022-11-20T00:25:55;4.50;99.90
48666;DHT22;34452;50.796;4.994;2022-11-20T00:28:20;4.50;99.90
48666;DHT22;34452;50.796;4.994;2022-11-20T00:30:46;4.40;99.90
48666;DHT22;34452;50.796;4.994;2022-11-20T00:33:12;4.40;99.90
48666;DHT22;34452;50.796;4.994;2022-11-20T00:35:38;4.50;99.90
48666;DHT22;34452;50.796;4.994;2022-11-20T00:38:04;4.50;99.90
48666;DHT22;34452;50.796;4.994;2022-11-20T00:40:29;4.50;99.90
48666;DHT22;34452;50.796;4.994;2022-11-20T00:42:55;4.50;99.90
48666;DHT22;34452;50.796;4.994;2022-11-20T00:45:21;4.50;99.90
48666;DHT22;34452;50.796;4.994;2022-11-20T00:47:46;4.50;99.90
48666;DHT22;34452;50.796;4.994;2022-11-20T00:50:12;4.50;99.90
48666;DHT22;34452;50.796;4.994;2022-11-20T00:52:38;4.50;99.90
48666;DHT22;34452;50.796;4.994;2022-11-20T00:55:04;4.60;99.90
48666;DHT22;34452;50.796;4.994;2022-11-20T00:57:29;4.60;99.90
48666;DHT22;34452;50.796;4.994;2022-11-20T00:59:55;4.60;99.90
48666;DHT22;34452;50.796;4.994;2022-11-20T01:02:21;4.60;99.90
48666;DHT22;34452;50.796;4.994;2022-11-20T01:04:46;4.60;99.90
48666;DHT22;34452;50.796;4.994;2022-11-20T01:07:12;4.60;99.90
48666;DHT22;34452;50.796;4.994;2022-11-20T01:09:38;4.50;99.90
48666;DHT22;34452;50.796;4.994;2022-11-20T01:12:04;4.60;99.90
48666;DHT22;34452;50.796;4.994;2022-11-20T01:14:29;4.60;99.90
48666;DHT22;34452;50.796;4.994;2022-11-20T01:16:55;4.60;99.90
48666;DHT22;34452;50.796;4.994;2022-11-20T01:19:22;4.60;99.90
48666;DHT22;34452;50.796;4.994;2022-11-20T01:21:51;4.60;99.90
48666;DHT22;34452;50.796;4.994;2022-11-20T01:24:19;4.60;99.90
48666;DHT22;34452;50.796;4.994;2022-11-20T01:26:48;4.60;99.90
48666;DHT22;34452;50.796;4.994;2022-11-20T01:29:22;4.60;99.90
48666;DHT22;34452;50.796;4.994;2022-11-20T01:31:49;4.50;99.90
48666;DHT22;34452;50.796;4.994;2022-11-20T01:34:17;4.50;99.90
48666;DHT22;34452;50.796;4.994;2022-11-20T01:36:44;4.50;99.90
48666;DHT22;34452;50.796;4.994;2022-11-20T01:39:19;4.50;99.90
48666;DHT22;34452;50.796;4.994;2022-11-20T01:41:47;4.50;99.90
48666;DHT22;34452;50.796;4.994;2022-11-20T01:47:14;4.50;99.90
48666;DHT22;34452;50.796;4.994;2022-11-20T01:49:46;4.50;99.90
48666;DHT22;34452;50.796;4.994;2022-11-20T01:55:04;4.60;99.90
48666;DHT22;34452;50.796;4.994;2022-11-20T01:57:33;4.60;99.90
48666;DHT22;34452;50.796;4.994;2022-11-20T02:00:04;4.60;99.90
48666;DHT22;34452;50.796;4.994;2022-11-20T02:02:31;4.60;99.90
48666;DHT22;34452;50.796;4.994;2022-11-20T02:05:02;4.60;99.90
48666;DHT22;34452;50.796;4.994;2022-11-20T02:07:30;4.60;99.90
48666;DHT22;34452;50.796;4.994;2022-11-20T02:09:56;4.70;99.90
48666;DHT22;34452;50.796;4.994;2022-11-20T02:12:21;4.70;99.90
48666;DHT22;34452;50.796;4.994;2022-11-20T02:15:06;4.70;99.90
48666;DHT22;34452;50.796;4.994;2022-11-20T02:17:32;4.80;99.90
48666;DHT22;34452;50.796;4.994;2022-11-20T02:19:57;4.80;99.90
48666;DHT22;34452;50.796;4.994;2022-11-20T02:22:28;4.80;99.90
48666;DHT22;34452;50.796;4.994;2022-11-20T02:24:58;4.70;99.90
48666;DHT22;34452;50.796;4.994;2022-11-20T02:27:26;4.70;99.90
48666;DHT22;34452;50.796;4.994;2022-11-20T02:32:22;4.70;99.90
48666;DHT22;34452;50.796;4.994;2022-11-20T02:34:48;4.70;99.90
48666;DHT22;34452;50.796;4.994;2022-11-20T02:37:14;4.60;99.90
48666;DHT22;34452;50.796;4.994;2022-11-20T02:39:40;4.50;99.90
48666;DHT22;34452;50.796;4.994;2022-11-20T02:42:07;4.50;99.90
48666;DHT22;34452;50.796;4.994;2022-11-20T02:44:32;4.50;99.90
48666;DHT22;34452;50.796;4.994;2022-11-20T02:46:59;4.60;99.90
48666;DHT22;34452;50.796;4.994;2022-11-20T02:49:25;4.60;99.90
48666;DHT22;34452;50.796;4.994;2022-11-20T02:51:51;4.60;99.90
48666;DHT22;34452;50.796;4.994;2022-11-20T02:54:16;4.60;99.90
48666;DHT22;34452;50.796;4.994;2022-11-20T02:56:43;4.60;99.90
48666;DHT22;34452;50.796;4.994;2022-11-20T02:59:09;4.60;99.90
48666;DHT22;34452;50.796;4.994;2022-11-20T03:01:34;4.60;99.90
48666;DHT22;34452;50.796;4.994;2022-11-20T03:04:00;4.60;99.90
48666;DHT22;34452;50.796;4.994;2022-11-20T03:06:26;4.60;99.90
48666;DHT22;34452;50.796;4.994;2022-11-20T03:08:51;4.60;99.90
48666;DHT22;34452;50.796;4.994;2022-11-20T03:11:17;4.60;99.90
48666;DHT22;34452;50.796;4.994;2022-11-20T03:13:43;4.60;99.90
48666;DHT22;34452;50.796;4.994;2022-11-20T03:16:14;4.60;99.90
48666;DHT22;34452;50.796;4.994;2022-11-20T03:18:41;4.50;99.90
48666;DHT22;34452;50.796;4.994;2022-11-20T03:21:08;4.60;99.90
48666;DHT22;34452;50.796;4.994;2022-11-20T03:23:34;4.60;99.90
48666;DHT22;34452;50.796;4.994;2022-11-20T03:26:19;4.50;99.90
48666;DHT22;34452;50.796;4.994;2022-11-20T03:28:50;4.50;99.90
48666;DHT22;34452;50.796;4.994;2022-11-20T03:31:18;4.60;99.90
48666;DHT22;34452;50.796;4.994;2022-11-20T03:33:44;4.50;99.90
48666;DHT22;34452;50.796;4.994;2022-11-20T03:36:14;4.50;99.90
48666;DHT22;34452;50.796;4.994;2022-11-20T03:38:40;4.50;99.90
48666;DHT22;34452;50.796;4.994;2022-11-20T03:41:14;4.50;99.90
48666;DHT22;34452;50.796;4.994;2022-11-20T03:43:40;4.50;99.90
48666;DHT22;34452;50.796;4.994;2022-11-20T03:46:06;4.50;99.90
48666;DHT22;34452;50.796;4.994;2022-11-20T03:48:32;4.50;99.90
48666;DHT22;34452;50.796;4.994;2022-11-20T03:53:33;4.60;99.90
48666;DHT22;34452;50.796;4.994;2022-11-20T03:55:59;4.60;99.90
48666;DHT22;34452;50.796;4.994;2022-11-20T03:58:25;4.70;99.90
48666;DHT22;34452;50.796;4.994;2022-11-20T04:00:50;4.60;99.90
48666;DHT22;34452;50.796;4.994;2022-11-20T04:03:16;4.70;99.90
48666;DHT22;34452;50.796;4.994;2022-11-20T04:05:42;4.70;99.90
48666;DHT22;34452;50.796;4.994;2022-11-20T04:08:07;4.70;99.90
48666;DHT22;34452;50.796;4.994;2022-11-20T04:10:33;4.70;99.90
48666;DHT22;34452;50.796;4.994;2022-11-20T04:12:59;4.70;99.90
48666;DHT22;34452;50.796;4.994;2022-11-20T04:15:25;4.80;99.90
48666;DHT22;34452;50.796;4.994;2022-11-20T04:17:50;4.80;99.90
48666;DHT22;34452;50.796;4.994;2022-11-20T04:20:16;4.80;99.90
48666;DHT22;34452;50.796;4.994;2022-11-20T04:22:42;4.80;99.90
48666;DHT22;34452;50.796;4.994;2022-11-20T04:25:08;4.80;99.90
48666;DHT22;34452;50.796;4.994;2022-11-20T04:27:33;4.80;99.90
48666;DHT22;34452;50.796;4.994;2022-11-20T04:29:59;4.80;99.90
48666;DHT22;34452;50.796;4.994;2022-11-20T04:32:25;4.80;99.90
48666;DHT22;34452;50.796;4.994;2022-11-20T04:34:50;4.80;99.90
48666;DHT22;34452;50.796;4.994;2022-11-20T04:37:16;4.80;99.90
48666;DHT22;34452;50.796;4.994;2022-11-20T04:39:42;4.80;99.90
48666;DHT22;34452;50.796;4.994;2022-11-20T04:42:09;4.80;99.90
48666;DHT22;34452;50.796;4.994;2022-11-20T04:44:53;4.80;99.90
48666;DHT22;34452;50.796;4.994;2022-11-20T04:47:19;4.90;99.90
48666;DHT22;34452;50.796;4.994;2022-11-20T04:49:45;4.80;99.90
48666;DHT22;34452;50.796;4.994;2022-11-20T04:52:11;4.90;99.90
48666;DHT22;34452;50.796;4.994;2022-11-20T04:54:36;4.80;99.90
48666;DHT22;34452;50.796;4.994;2022-11-20T04:57:02;4.70;99.90
48666;DHT22;34452;50.796;4.994;2022-11-20T04:59:28;4.70;99.90
48666;DHT22;34452;50.796;4.994;2022-11-20T05:01:54;4.70;99.90
48666;DHT22;34452;50.796;4.994;2022-11-20T05:04:19;4.60;99.90
48666;DHT22;34452;50.796;4.994;2022-11-20T05:06:45;4.50;99.90
48666;DHT22;34452;50.796;4.994;2022-11-20T05:09:12;4.50;99.90
48666;DHT22;34452;50.796;4.994;2022-11-20T05:11:37;4.50;99.90
48666;DHT22;34452;50.796;4.994;2022-11-20T05:14:03;4.50;99.90
48666;DHT22;34452;50.796;4.994;2022-11-20T05:16:29;4.60;99.90
48666;DHT22;34452;50.796;4.994;2022-11-20T05:18:55;4.50;99.90
48666;DHT22;34452;50.796;4.994;2022-11-20T05:21:22;4.50;99.90
48666;DHT22;34452;50.796;4.994;2022-11-20T05:23:48;4.60;99.90
48666;DHT22;34452;50.796;4.994;2022-11-20T05:26:18;4.60;99.90
48666;DHT22;34452;50.796;4.994;2022-11-20T05:28:44;4.60;99.90
48666;DHT22;34452;50.796;4.994;2022-11-20T05:31:12;4.60;99.90
48666;DHT22;34452;50.796;4.994;2022-11-20T05:33:41;4.60;99.90
48666;DHT22;34452;50.796;4.994;2022-11-20T05:36:07;4.60;99.90
48666;DHT22;34452;50.796;4.994;2022-11-20T05:38:33;4.50;99.90
48666;DHT22;34452;50.796;4.994;2022-11-20T05:41:06;4.60;99.90
48666;DHT22;34452;50.796;4.994;2022-11-20T05:43:33;4.60;99.90
48666;DHT22;34452;50.796;4.994;2022-11-20T05:46:00;4.60;99.90
48666;DHT22;34452;50.796;4.994;2022-11-20T05:48:26;4.60;99.90
48666;DHT22;34452;50.796;4.994;2022-11-20T05:50:52;4.60;99.90
48666;DHT22;34452;50.796;4.994;2022-11-20T05:53:17;4.60;99.90
48666;DHT22;34452;50.796;4.994;2022-11-20T05:55:43;4.60;99.90
48666;DHT22;34452;50.796;4.994;2022-11-20T05:58:09;4.60;99.90
48666;DHT22;34452;50.796;4.994;2022-11-20T06:00:35;4.70;99.90
48666;DHT22;34452;50.796;4.994;2022-11-20T06:03:01;4.70;99.90
48666;DHT22;34452;50.796;4.994;2022-11-20T06:05:27;4.70;99.90
48666;DHT22;34452;50.796;4.994;2022-11-20T06:07:52;4.80;99.90
48666;DHT22;34452;50.796;4.994;2022-11-20T06:10:18;4.80;99.90
48666;DHT22;34452;50.796;4.994;2022-11-20T06:12:44;4.80;99.90
48666;DHT22;34452;50.796;4.994;2022-11-20T06:15:10;4.80;99.90
48666;DHT22;34452;50.796;4.994;2022-11-20T06:17:35;4.80;99.90
48666;DHT22;34452;50.796;4.994;2022-11-20T06:20:01;4.90;99.90
48666;DHT22;34452;50.796;4.994;2022-11-20T06:22:27;5.00;99.90
48666;DHT22;34452;50.796;4.994;2022-11-20T06:24:52;5.00;99.90
48666;DHT22;34452;50.796;4.994;2022-11-20T06:27:18;5.00;99.90
48666;DHT22;34452;50.796;4.994;2022-11-20T06:29:44;5.00;99.90
48666;DHT22;34452;50.796;4.994;2022-11-20T06:32:10;5.00;99.90
48666;DHT22;34452;50.796;4.994;2022-11-20T06:34:35;5.00;99.90
48666;DHT22;34452;50.796;4.994;2022-11-20T06:37:01;5.10;99.90
48666;DHT22;34452;50.796;4.994;2022-11-20T06:39:27;5.00;99.90
48666;DHT22;34452;50.796;4.994;2022-11-20T06:41:52;5.10;99.90
48666;DHT22;34452;50.796;4.994;2022-11-20T06:44:18;5.10;99.90
48666;DHT22;34452;50.796;4.994;2022-11-20T06:46:43;5.10;99.90
48666;DHT22;34452;50.796;4.994;2022-11-20T06:49:09;5.10;99.90
48666;DHT22;34452;50.796;4.994;2022-11-20T06:51:35;5.10;99.90
48666;DHT22;34452;50.796;4.994;2022-11-20T06:54:00;5.10;99.90
48666;DHT22;34452;50.796;4.994;2022-11-20T06:56:26;5.00;99.90
48666;DHT22;34452;50.796;4.994;2022-11-20T06:58:53;5.00;99.90
48666;DHT22;34452;50.796;4.994;2022-11-20T07:01:18;5.10;99.90
48666;DHT22;34452;50.796;4.994;2022-11-20T07:03:44;5.10;99.90
48666;DHT22;34452;50.796;4.994;2022-11-20T07:06:10;5.00;99.90
48666;DHT22;34452;50.796;4.994;2022-11-20T07:08:36;5.10;99.90
48666;DHT22;34452;50.796;4.994;2022-11-20T07:11:05;5.10;99.90
48666;DHT22;34452;50.796;4.994;2022-11-20T07:13:31;5.20;99.90
48666;DHT22;34452;50.796;4.994;2022-11-20T07:16:02;5.20;99.90
48666;DHT22;34452;50.796;4.994;2022-11-20T07:18:28;5.10;99.90
48666;DHT22;34452;50.796;4.994;2022-11-20T07:20:54;5.20;99.90
48666;DHT22;34452;50.796;4.994;2022-11-20T07:23:21;5.20;99.90
48666;DHT22;34452;50.796;4.994;2022-11-20T07:25:47;5.20;99.90
48666;DHT22;34452;50.796;4.994;2022-11-20T07:28:13;5.30;99.90
48666;DHT22;34452;50.796;4.994;2022-11-20T07:30:39;5.30;99.90
48666;DHT22;34452;50.796;4.994;2022-11-20T07:33:05;5.30;99.90
48666;DHT22;34452;50.796;4.994;2022-11-20T07:35:30;5.30;99.90
48666;DHT22;34452;50.796;4.994;2022-11-20T07:37:56;5.30;99.90
48666;DHT22;34452;50.796;4.994;2022-11-20T07:40:22;5.30;99.90
48666;DHT22;34452;50.796;4.994;2022-11-20T07:42:52;5.40;99.90
48666;DHT22;34452;50.796;4.994;2022-11-20T07:45:19;5.40;99.90
48666;DHT22;34452;50.796;4.994;2022-11-20T07:47:45;5.40;99.90
48666;DHT22;34452;50.796;4.994;2022-11-20T07:50:11;5.40;99.90
48666;DHT22;34452;50.796;4.994;2022-11-20T07:52:37;5.40;99.90
48666;DHT22;34452;50.796;4.994;2022-11-20T07:55:03;5.40;99.90
48666;DHT22;34452;50.796;4.994;2022-11-20T07:57:29;5.40;99.90
48666;DHT22;34452;50.796;4.994;2022-11-20T07:59:54;5.50;99.90
48666;DHT22;34452;50.796;4.994;2022-11-20T08:02:20;5.50;99.90
48666;DHT22;34452;50.796;4.994;2022-11-20T08:04:46;5.50;99.90
48666;DHT22;34452;50.796;4.994;2022-11-20T08:07:12;5.50;99.90
48666;DHT22;34452;50.796;4.994;2022-11-20T08:09:37;5.50;99.90
48666;DHT22;34452;50.796;4.994;2022-11-20T08:12:03;5.50;99.90
48666;DHT22;34452;50.796;4.994;2022-11-20T08:14:47;5.50;99.90
48666;DHT22;34452;50.796;4.994;2022-11-20T08:17:13;5.50;99.90
48666;DHT22;34452;50.796;4.994;2022-11-20T08:19:39;5.60;99.90
48666;DHT22;34452;50.796;4.994;2022-11-20T08:22:04;5.60;99.90
48666;DHT22;34452;50.796;4.994;2022-11-20T08:24:30;5.60;99.90
48666;DHT22;34452;50.796;4.994;2022-11-20T08:26:58;5.60;99.90
48666;DHT22;34452;50.796;4.994;2022-11-20T08:29:26;5.70;99.90
48666;DHT22;34452;50.796;4.994;2022-11-20T08:31:51;5.70;99.90
48666;DHT22;34452;50.796;4.994;2022-11-20T08:34:17;5.80;99.90
48666;DHT22;34452;50.796;4.994;2022-11-20T08:36:43;5.70;99.90
48666;DHT22;34452;50.796;4.994;2022-11-20T08:39:12;5.70;99.90
48666;DHT22;34452;50.796;4.994;2022-11-20T08:41:37;5.80;99.90
48666;DHT22;34452;50.796;4.994;2022-11-20T08:44:05;5.80;99.90
48666;DHT22;34452;50.796;4.994;2022-11-20T08:46:37;5.80;99.90
48666;DHT22;34452;50.796;4.994;2022-11-20T08:49:06;5.80;99.90
48666;DHT22;34452;50.796;4.994;2022-11-20T08:51:32;5.80;99.90
48666;DHT22;34452;50.796;4.994;2022-11-20T08:53:58;5.90;99.90
48666;DHT22;34452;50.796;4.994;2022-11-20T08:56:24;5.90;99.90
48666;DHT22;34452;50.796;4.994;2022-11-20T08:58:51;6.00;99.90
48666;DHT22;34452;50.796;4.994;2022-11-20T09:01:20;6.00;99.90
48666;DHT22;34452;50.796;4.994;2022-11-20T09:03:47;6.10;99.90
48666;DHT22;34452;50.796;4.994;2022-11-20T09:06:13;6.10;99.90
48666;DHT22;34452;50.796;4.994;2022-11-20T09:08:39;6.20;99.90
48666;DHT22;34452;50.796;4.994;2022-11-20T09:11:05;6.20;99.90
48666;DHT22;34452;50.796;4.994;2022-11-20T09:13:32;6.30;99.90
48666;DHT22;34452;50.796;4.994;2022-11-20T09:16:04;6.30;99.90
48666;DHT22;34452;50.796;4.994;2022-11-20T09:18:30;6.30;99.90
48666;DHT22;34452;50.796;4.994;2022-11-20T09:21:03;6.40;99.90
48666;DHT22;34452;50.796;4.994;2022-11-20T09:23:35;6.40;99.90
48666;DHT22;34452;50.796;4.994;2022-11-20T09:26:05;6.50;99.90
48666;DHT22;34452;50.796;4.994;2022-11-20T09:28:31;6.50;99.90
48666;DHT22;34452;50.796;4.994;2022-11-20T09:30:57;6.60;99.90
48666;DHT22;34452;50.796;4.994;2022-11-20T09:33:23;6.60;99.90
48666;DHT22;34452;50.796;4.994;2022-11-20T09:35:49;6.60;99.90
48666;DHT22;34452;50.796;4.994;2022-11-20T09:38:14;6.60;99.90
48666;DHT22;34452;50.796;4.994;2022-11-20T09:46:33;6.80;99.90
48666;DHT22;34452;50.796;4.994;2022-11-20T09:51:58;6.90;99.90
48666;DHT22;34452;50.796;4.994;2022-11-20T09:54:31;6.90;99.90
48666;DHT22;34452;50.796;4.994;2022-11-20T09:57:03;7.00;99.90
48666;DHT22;34452;50.796;4.994;2022-11-20T10:01:59;7.10;99.90
48666;DHT22;34452;50.796;4.994;2022-11-20T10:04:25;7.20;99.90
48666;DHT22;34452;50.796;4.994;2022-11-20T10:07:15;7.20;99.90
48666;DHT22;34452;50.796;4.994;2022-11-20T10:09:51;7.30;99.90
48666;DHT22;34452;50.796;4.994;2022-11-20T10:18:09;7.40;99.90
48666;DHT22;34452;50.796;4.994;2022-11-20T10:23:35;7.50;99.90
48666;DHT22;34452;50.796;4.994;2022-11-20T10:29:17;7.60;99.90
48666;DHT22;34452;50.796;4.994;2022-11-20T10:31:51;7.80;99.90
48666;DHT22;34452;50.796;4.994;2022-11-20T10:34:34;7.90;99.90
48666;DHT22;34452;50.796;4.994;2022-11-20T10:37:17;7.90;99.90
48666;DHT22;34452;50.796;4.994;2022-11-20T10:42:45;8.00;99.90
48666;DHT22;34452;50.796;4.994;2022-11-20T10:47:43;8.10;99.90
48666;DHT22;34452;50.796;4.994;2022-11-20T10:50:11;8.10;99.90
48666;DHT22;34452;50.796;4.994;2022-11-20T10:55:38;8.30;99.90
48666;DHT22;34452;50.796;4.994;2022-11-20T11:00:36;8.40;99.90
48666;DHT22;34452;50.796;4.994;2022-11-20T11:03:02;8.50;99.90
48666;DHT22;34452;50.796;4.994;2022-11-20T11:08:15;8.50;99.90
48666;DHT22;34452;50.796;4.994;2022-11-20T11:13:26;8.60;99.90
48666;DHT22;34452;50.796;4.994;2022-11-20T11:15:52;8.60;99.90
48666;DHT22;34452;50.796;4.994;2022-11-20T11:18:51;8.60;99.90
48666;DHT22;34452;50.796;4.994;2022-11-20T11:21:10;8.70;99.90
48666;DHT22;34452;50.796;4.994;2022-11-20T11:23:40;8.70;99.90
48666;DHT22;34452;50.796;4.994;2022-11-20T11:26:21;8.80;99.90
48666;DHT22;34452;50.796;4.994;2022-11-20T11:29:02;8.80;99.90
48666;DHT22;34452;50.796;4.994;2022-11-20T11:31:29;8.80;99.90
48666;DHT22;34452;50.796;4.994;2022-11-20T11:34:06;8.90;99.90
48666;DHT22;34452;50.796;4.994;2022-11-20T11:36:34;8.90;99.90
48666;DHT22;34452;50.796;4.994;2022-11-20T11:39:00;9.00;99.90
48666;DHT22;34452;50.796;4.994;2022-11-20T11:41:30;9.00;99.90
48666;DHT22;34452;50.796;4.994;2022-11-20T11:44:24;9.10;99.90
48666;DHT22;34452;50.796;4.994;2022-11-20T11:47:22;9.10;99.90
48666;DHT22;34452;50.796;4.994;2022-11-20T11:49:49;9.10;99.90
48666;DHT22;34452;50.796;4.994;2022-11-20T11:52:25;9.10;99.90
48666;DHT22;34452;50.796;4.994;2022-11-20T11:54:59;9.10;99.90
48666;DHT22;34452;50.796;4.994;2022-11-20T11:57:29;9.20;99.90
48666;DHT22;34452;50.796;4.994;2022-11-20T12:05:42;9.20;99.90
48666;DHT22;34452;50.796;4.994;2022-11-20T12:08:23;9.30;99.90
48666;DHT22;34452;50.796;4.994;2022-11-20T12:11:03;9.20;99.90
48666;DHT22;34452;50.796;4.994;2022-11-20T12:15:58;9.20;99.90
48666;DHT22;34452;50.796;4.994;2022-11-20T12:18:24;9.20;99.90
48666;DHT22;34452;50.796;4.994;2022-11-20T12:39:42;8.90;99.90
48666;DHT22;34452;50.796;4.994;2022-11-20T12:45:28;8.80;99.90
48666;DHT22;34452;50.796;4.994;2022-11-20T12:54:00;8.60;99.90
48666;DHT22;34452;50.796;4.994;2022-11-20T13:01:54;8.50;99.90
48666;DHT22;34452;50.796;4.994;2022-11-20T13:04:30;8.50;99.90
48666;DHT22;34452;50.796;4.994;2022-11-20T13:07:05;8.50;99.90
48666;DHT22;34452;50.796;4.994;2022-11-20T13:09:33;8.40;99.90
48666;DHT22;34452;50.796;4.994;2022-11-20T13:12:09;8.40;99.90
48666;DHT22;34452;50.796;4.994;2022-11-20T13:14:44;8.40;99.90
48666;DHT22;34452;50.796;4.994;2022-11-20T13:17:28;8.40;99.90
48666;DHT22;34452;50.796;4.994;2022-11-20T13:19:57;8.40;99.90
48666;DHT22;34452;50.796;4.994;2022-11-20T13:22:28;8.30;99.90
48666;DHT22;34452;50.796;4.994;2022-11-20T13:24:54;8.30;99.90
48666;DHT22;34452;50.796;4.994;2022-11-20T13:27:22;8.30;99.90
48666;DHT22;34452;50.796;4.994;2022-11-20T13:30:11;8.30;99.90
48666;DHT22;34452;50.796;4.994;2022-11-20T13:32:51;8.20;99.90
48666;DHT22;34452;50.796;4.994;2022-11-20T13:38:15;8.30;99.90
48666;DHT22;34452;50.796;4.994;2022-11-20T13:40:58;8.30;99.90
48666;DHT22;34452;50.796;4.994;2022-11-20T13:43:37;8.30;99.90
48666;DHT22;34452;50.796;4.994;2022-11-20T13:46:06;8.30;99.90
48666;DHT22;34452;50.796;4.994;2022-11-20T13:48:34;8.30;99.90
48666;DHT22;34452;50.796;4.994;2022-11-20T13:56:08;8.20;99.90
48666;DHT22;34452;50.796;4.994;2022-11-20T13:58:52;8.10;99.90
48666;DHT22;34452;50.796;4.994;2022-11-20T14:01:29;8.10;99.90
48666;DHT22;34452;50.796;4.994;2022-11-20T14:03:57;8.10;99.90
48666;DHT22;34452;50.796;4.994;2022-11-20T14:06:27;8.10;99.90
48666;DHT22;34452;50.796;4.994;2022-11-20T14:08:53;8.00;99.90
48666;DHT22;34452;50.796;4.994;2022-11-20T14:11:21;8.00;99.90
48666;DHT22;34452;50.796;4.994;2022-11-20T14:14:15;8.00;99.90
48666;DHT22;34452;50.796;4.994;2022-11-20T14:16:42;8.00;99.90
48666;DHT22;34452;50.796;4.994;2022-11-20T14:21:54;7.90;99.90
48666;DHT22;34452;50.796;4.994;2022-11-20T14:24:22;7.90;99.90
48666;DHT22;34452;50.796;4.994;2022-11-20T14:26:51;7.90;99.90
48666;DHT22;34452;50.796;4.994;2022-11-20T14:29:18;7.90;99.90
48666;DHT22;34452;50.796;4.994;2022-11-20T14:31:45;7.90;99.90
48666;DHT22;34452;50.796;4.994;2022-11-20T14:34:17;7.90;99.90
48666;DHT22;34452;50.796;4.994;2022-11-20T14:36:44;7.90;99.90
48666;DHT22;34452;50.796;4.994;2022-11-20T14:39:21;7.90;99.90
48666;DHT22;34452;50.796;4.994;2022-11-20T14:41:53;7.90;99.90
48666;DHT22;34452;50.796;4.994;2022-11-20T14:44:28;8.00;99.90
48666;DHT22;34452;50.796;4.994;2022-11-20T14:46:55;8.00;99.90
48666;DHT22;34452;50.796;4.994;2022-11-20T14:49:21;8.00;99.90
48666;DHT22;34452;50.796;4.994;2022-11-20T14:52:17;8.00;99.90
48666;DHT22;34452;50.796;4.994;2022-11-20T14:54:48;8.00;99.90
48666;DHT22;34452;50.796;4.994;2022-11-20T14:57:35;8.00;99.90
48666;DHT22;34452;50.796;4.994;2022-11-20T15:02:46;8.00;99.90
48666;DHT22;34452;50.796;4.994;2022-11-20T15:05:13;8.00;99.90
48666;DHT22;34452;50.796;4.994;2022-11-20T15:07:47;8.00;99.90
48666;DHT22;34452;50.796;4.994;2022-11-20T15:10:26;8.10;99.90
48666;DHT22;34452;50.796;4.994;2022-11-20T15:12:54;8.10;99.90
48666;DHT22;34452;50.796;4.994;2022-11-20T15:15:23;8.10;99.90
48666;DHT22;34452;50.796;4.994;2022-11-20T15:17:50;8.10;99.90
48666;DHT22;34452;50.796;4.994;2022-11-20T15:20:17;8.10;99.90
48666;DHT22;34452;50.796;4.994;2022-11-20T15:22:43;8.20;99.90
48666;DHT22;34452;50.796;4.994;2022-11-20T15:25:16;8.20;99.90
48666;DHT22;34452;50.796;4.994;2022-11-20T15:27:44;8.30;99.90
48666;DHT22;34452;50.796;4.994;2022-11-20T15:30:18;8.30;99.90
48666;DHT22;34452;50.796;4.994;2022-11-20T15:32:45;8.30;99.90
48666;DHT22;34452;50.796;4.994;2022-11-20T15:35:12;8.30;99.90
48666;DHT22;34452;50.796;4.994;2022-11-20T15:37:38;8.30;99.90
48666;DHT22;34452;50.796;4.994;2022-11-20T15:40:05;8.30;99.90
48666;DHT22;34452;50.796;4.994;2022-11-20T15:42:32;8.30;99.90
48666;DHT22;34452;50.796;4.994;2022-11-20T15:44:58;8.30;99.90
48666;DHT22;34452;50.796;4.994;2022-11-20T15:47:34;8.30;99.90
48666;DHT22;34452;50.796;4.994;2022-11-20T15:50:00;8.40;99.90
48666;DHT22;34452;50.796;4.994;2022-11-20T15:52:26;8.40;99.90
48666;DHT22;34452;50.796;4.994;2022-11-20T15:54:52;8.40;99.90
48666;DHT22;34452;50.796;4.994;2022-11-20T15:57:17;8.50;99.90
48666;DHT22;34452;50.796;4.994;2022-11-20T15:59:43;8.50;99.90
48666;DHT22;34452;50.796;4.994;2022-11-20T16:02:10;8.50;99.90
48666;DHT22;34452;50.796;4.994;2022-11-20T16:04:36;8.60;99.90
48666;DHT22;34452;50.796;4.994;2022-11-20T16:07:02;8.60;99.90
48666;DHT22;34452;50.796;4.994;2022-11-20T16:09:28;8.60;99.90
48666;DHT22;34452;50.796;4.994;2022-11-20T16:11:54;8.60;99.90
48666;DHT22;34452;50.796;4.994;2022-11-20T16:14:20;8.70;99.90
48666;DHT22;34452;50.796;4.994;2022-11-20T16:17:04;8.60;99.90
48666;DHT22;34452;50.796;4.994;2022-11-20T16:19:30;8.70;99.90
48666;DHT22;34452;50.796;4.994;2022-11-20T16:21:57;8.70;99.90
48666;DHT22;34452;50.796;4.994;2022-11-20T16:24:23;8.80;99.90
48666;DHT22;34452;50.796;4.994;2022-11-20T16:26:49;8.70;99.90
48666;DHT22;34452;50.796;4.994;2022-11-20T16:29:15;8.70;99.90
48666;DHT22;34452;50.796;4.994;2022-11-20T16:31:40;8.70;99.90
48666;DHT22;34452;50.796;4.994;2022-11-20T16:34:07;8.70;99.90
48666;DHT22;34452;50.796;4.994;2022-11-20T16:36:33;8.70;99.90
48666;DHT22;34452;50.796;4.994;2022-11-20T16:39:01;8.70;99.90
48666;DHT22;34452;50.796;4.994;2022-11-20T16:41:31;8.70;99.90
48666;DHT22;34452;50.796;4.994;2022-11-20T16:43:59;8.70;99.90
48666;DHT22;34452;50.796;4.994;2022-11-20T16:46:27;8.70;99.90
48666;DHT22;34452;50.796;4.994;2022-11-20T16:51:24;8.70;99.90
48666;DHT22;34452;50.796;4.994;2022-11-20T16:53:50;8.60;99.90
48666;DHT22;34452;50.796;4.994;2022-11-20T16:56:18;8.60;99.90
48666;DHT22;34452;50.796;4.994;2022-11-20T16:58:45;8.60;99.90
48666;DHT22;34452;50.796;4.994;2022-11-20T17:01:13;8.60;99.90
48666;DHT22;34452;50.796;4.994;2022-11-20T17:03:40;8.60;99.90
48666;DHT22;34452;50.796;4.994;2022-11-20T17:06:16;8.60;99.90
48666;DHT22;34452;50.796;4.994;2022-11-20T17:08:43;8.60;99.90
48666;DHT22;34452;50.796;4.994;2022-11-20T17:11:09;8.60;99.90
48666;DHT22;34452;50.796;4.994;2022-11-20T17:13:36;8.60;99.90
48666;DHT22;34452;50.796;4.994;2022-11-20T17:16:06;8.60;99.90
48666;DHT22;34452;50.796;4.994;2022-11-20T17:18:32;8.70;99.90
48666;DHT22;34452;50.796;4.994;2022-11-20T17:20:59;8.70;99.90
48666;DHT22;34452;50.796;4.994;2022-11-20T17:23:32;8.70;99.90
48666;DHT22;34452;50.796;4.994;2022-11-20T17:26:11;8.70;99.90
48666;DHT22;34452;50.796;4.994;2022-11-20T17:28:45;8.70;99.90
48666;DHT22;34452;50.796;4.994;2022-11-20T17:31:14;8.70;99.90
48666;DHT22;34452;50.796;4.994;2022-11-20T17:33:42;8.70;99.90
48666;DHT22;34452;50.796;4.994;2022-11-20T17:36:10;8.70;99.90
48666;DHT22;34452;50.796;4.994;2022-11-20T17:38:36;8.70;99.90
48666;DHT22;34452;50.796;4.994;2022-11-20T17:41:13;8.70;99.90